createdAt,value
2017-05-05T00:00:38.028Z,83.31
2017-05-05T00:01:38.072Z,83.97
2017-05-05T00:02:38.104Z,83.97
2017-05-05T00:03:38.163Z,83.97
2017-05-05T00:04:38.198Z,83.78
2017-05-05T00:05:38.247Z,83.88
2017-05-05T00:06:38.257Z,83.88
2017-05-05T00:07:38.485Z,83.78
2017-05-05T00:08:38.321Z,83.88
2017-05-05T00:09:38.358Z,83.69
2017-05-05T00:10:38.409Z,83.69
2017-05-05T00:11:38.437Z,83.69
2017-05-05T00:12:38.494Z,83.69
2017-05-05T00:13:38.506Z,84.26
2017-05-05T00:14:38.564Z,83.69
2017-05-05T00:15:38.576Z,83.78
2017-05-05T00:16:38.622Z,84.26
2017-05-05T00:17:38.653Z,84.36
2017-05-05T00:18:38.685Z,83.5
2017-05-05T00:19:38.725Z,83.97
2017-05-05T00:20:38.758Z,83.97
2017-05-05T00:21:38.811Z,83.97
2017-05-05T00:22:38.832Z,83.97
2017-05-05T00:23:38.886Z,83.97
2017-05-05T00:24:38.901Z,84.07
2017-05-05T00:25:38.953Z,83.97
2017-05-05T00:26:38.979Z,83.97
2017-05-05T00:27:39.023Z,83.97
2017-05-05T00:28:39.043Z,84.16
2017-05-05T00:29:39.099Z,84.16
2017-05-05T00:30:39.118Z,84.16
2017-05-05T00:31:39.168Z,83.78
2017-05-05T00:32:39.185Z,83.97
2017-05-05T00:33:39.252Z,83.97
2017-05-05T00:34:39.270Z,83.88
2017-05-05T00:35:39.618Z,83.97
2017-05-05T00:36:39.337Z,83.88
2017-05-05T00:37:39.374Z,83.97
2017-05-05T00:38:39.415Z,84.07
2017-05-05T00:39:39.447Z,83.97
2017-05-05T00:40:39.487Z,84.45
2017-05-05T00:41:39.515Z,84.55
2017-05-05T00:42:39.561Z,84.45
2017-05-05T00:43:39.614Z,84.55
2017-05-05T00:44:39.624Z,84.26
2017-05-05T00:45:39.657Z,84.16
2017-05-05T00:46:39.719Z,84.16
2017-05-05T00:47:39.729Z,83.97
2017-05-05T00:48:39.782Z,84.26
2017-05-05T00:49:39.815Z,84.36
2017-05-05T00:50:39.840Z,84.36
2017-05-05T00:51:39.873Z,84.45
2017-05-05T00:52:39.933Z,84.74
2017-05-05T00:53:39.949Z,84.45
2017-05-05T00:54:39.996Z,84.64
2017-05-05T00:55:40.046Z,84.74
2017-05-05T00:56:40.052Z,84.55
2017-05-05T00:57:40.410Z,84.45
2017-05-05T00:58:40.447Z,84.55
2017-05-05T00:59:40.183Z,84.55
2017-05-05T01:00:40.204Z,84.45
2017-05-05T01:01:40.235Z,85.02
2017-05-05T01:02:40.290Z,84.83
2017-05-05T01:03:40.616Z,84.74
2017-05-05T01:04:40.348Z,84.74
2017-05-05T01:05:40.384Z,84.55
2017-05-05T01:06:40.419Z,84.64
2017-05-05T01:07:40.456Z,85.02
2017-05-05T01:08:40.496Z,84.92
2017-05-05T01:09:40.527Z,85.02
2017-05-05T01:10:40.560Z,85.41
2017-05-05T01:11:40.926Z,85.21
2017-05-05T01:12:40.631Z,85.12
2017-05-05T01:13:40.665Z,85.31
2017-05-05T01:14:40.710Z,85.31
2017-05-05T01:15:41.052Z,85.21
2017-05-05T01:16:40.785Z,85.41
2017-05-05T01:17:40.823Z,85.69
2017-05-05T01:18:40.853Z,85.6
2017-05-05T01:19:40.889Z,85.41
2017-05-05T01:20:40.931Z,84.92
2017-05-05T01:21:40.956Z,85.78
2017-05-05T01:22:41.003Z,85.78
2017-05-05T01:23:41.027Z,86.36
2017-05-05T01:24:41.076Z,86.07
2017-05-05T01:25:41.105Z,86.26
2017-05-05T01:26:41.146Z,86.16
2017-05-05T01:27:41.183Z,85.78
2017-05-05T01:28:41.541Z,85.78
2017-05-05T01:29:41.559Z,86.26
2017-05-05T01:30:41.285Z,86.22
2017-05-05T01:31:41.320Z,86.26
2017-05-05T01:32:41.363Z,86.36
2017-05-05T01:33:41.387Z,86.45
2017-05-05T01:34:41.429Z,86.74
2017-05-05T01:35:41.493Z,86.55
2017-05-05T01:36:41.504Z,86.36
2017-05-05T01:37:41.541Z,86.69
2017-05-05T01:38:41.567Z,86.22
2017-05-05T01:39:41.609Z,86.69
2017-05-05T01:40:41.642Z,86.55
2017-05-05T01:41:41.684Z,86.41
2017-05-05T01:42:41.728Z,86.41
2017-05-05T01:43:41.751Z,86.65
2017-05-05T01:44:41.780Z,86.79
2017-05-05T01:45:41.839Z,86.74
2017-05-05T01:46:41.853Z,87.36
2017-05-05T01:47:41.892Z,86.93
2017-05-05T01:48:42.246Z,87.12
2017-05-05T01:49:41.972Z,86.6
2017-05-05T01:50:42.004Z,86.98
2017-05-05T01:51:42.039Z,86.93
2017-05-05T01:52:42.091Z,87.12
2017-05-05T01:53:42.117Z,86.83
2017-05-05T01:54:42.146Z,86.74
2017-05-05T01:55:42.200Z,86.74
2017-05-05T01:56:42.225Z,86.69
2017-05-05T01:57:42.270Z,87.02
2017-05-05T01:58:42.307Z,87.12
2017-05-05T01:59:42.320Z,87.12
2017-05-05T02:00:42.375Z,87.02
2017-05-05T02:01:42.391Z,86.93
2017-05-05T02:02:42.430Z,86.83
2017-05-05T02:03:42.486Z,86.93
2017-05-05T02:04:42.502Z,87.27
2017-05-05T02:05:42.537Z,86.6
2017-05-05T02:06:42.585Z,87.65
2017-05-05T02:07:42.609Z,87.55
2017-05-05T02:08:42.649Z,87.27
2017-05-05T02:09:42.697Z,87.07
2017-05-05T02:10:42.726Z,87.46
2017-05-05T02:11:42.753Z,87.27
2017-05-05T02:12:42.789Z,87.27
2017-05-05T02:13:42.832Z,87.36
2017-05-05T02:14:42.859Z,87.4
2017-05-05T02:15:42.918Z,87.46
2017-05-05T02:16:42.957Z,87.36
2017-05-05T02:17:42.970Z,87.46
2017-05-05T02:18:43.024Z,87.55
2017-05-05T02:19:43.038Z,88.17
2017-05-05T02:20:43.100Z,87.93
2017-05-05T02:21:43.112Z,87.74
2017-05-05T02:22:43.160Z,87.65
2017-05-05T02:23:43.184Z,87.5
2017-05-05T02:24:43.218Z,87.69
2017-05-05T02:25:43.267Z,87.5
2017-05-05T02:26:43.304Z,87.6
2017-05-05T02:27:43.347Z,87.65
2017-05-05T02:28:43.366Z,87.69
2017-05-05T02:29:43.417Z,87.93
2017-05-05T02:30:43.434Z,87.93
2017-05-05T02:31:43.485Z,87.84
2017-05-05T02:32:43.509Z,87.4
2017-05-05T02:33:43.545Z,87.46
2017-05-05T02:34:43.580Z,87.74
2017-05-05T02:35:43.614Z,87.55
2017-05-05T02:36:43.663Z,87.79
2017-05-05T02:37:43.685Z,87.6
2017-05-05T02:38:43.724Z,87.79
2017-05-05T02:39:43.783Z,87.79
2017-05-05T02:40:43.798Z,87.5
2017-05-05T02:41:43.831Z,88.03
2017-05-05T02:42:43.882Z,88.26
2017-05-05T02:43:44.263Z,87.55
2017-05-05T02:44:43.939Z,87.65
2017-05-05T02:45:43.998Z,87.74
2017-05-05T02:46:44.010Z,87.88
2017-05-05T02:47:44.353Z,87.79
2017-05-05T02:48:44.085Z,87.6
2017-05-05T02:49:44.138Z,87.69
2017-05-05T02:50:44.167Z,87.6
2017-05-05T02:51:44.222Z,87.98
2017-05-05T02:52:44.237Z,88.6
2017-05-05T02:53:44.263Z,88.45
2017-05-05T02:54:44.323Z,88.03
2017-05-05T02:55:44.356Z,87.74
2017-05-05T02:56:44.383Z,87.88
2017-05-05T02:57:44.411Z,87.79
2017-05-05T02:58:44.468Z,88.22
2017-05-05T02:59:44.477Z,87.55
2017-05-05T03:00:44.514Z,88.17
2017-05-05T03:01:44.551Z,88.03
2017-05-05T03:02:44.587Z,88.36
2017-05-05T03:03:44.643Z,88.26
2017-05-05T03:04:44.678Z,88.12
2017-05-05T03:05:44.718Z,88.31
2017-05-05T03:06:44.731Z,87.93
2017-05-05T03:07:44.764Z,88.31
2017-05-05T03:08:44.802Z,88.31
2017-05-05T03:09:44.856Z,88.12
2017-05-05T03:10:44.875Z,88.36
2017-05-05T03:11:45.234Z,87.98
2017-05-05T03:12:45.287Z,87.46
2017-05-05T03:13:45.001Z,88.12
2017-05-05T03:14:45.039Z,88.12
2017-05-05T03:15:45.053Z,88.12
2017-05-05T03:16:45.397Z,87.98
2017-05-05T03:17:45.432Z,88.03
2017-05-05T03:18:45.190Z,88.07
2017-05-05T03:19:45.211Z,87.93
2017-05-05T03:20:45.237Z,87.93
2017-05-05T03:21:45.289Z,88.36
2017-05-05T03:22:45.305Z,87.93
2017-05-05T03:23:45.356Z,88.07
2017-05-05T03:24:45.702Z,87.65
2017-05-05T03:25:45.413Z,87.79
2017-05-05T03:26:45.460Z,88.45
2017-05-05T03:27:45.483Z,87.98
2017-05-05T03:28:45.519Z,87.79
2017-05-05T03:29:45.585Z,88.17
2017-05-05T03:30:45.591Z,87.6
2017-05-05T03:31:45.630Z,87.98
2017-05-05T03:32:45.665Z,88.26
2017-05-05T03:33:45.729Z,87.79
2017-05-05T03:34:45.737Z,88.17
2017-05-05T03:35:45.776Z,87.88
2017-05-05T03:36:45.830Z,88.26
2017-05-05T03:37:45.854Z,87.6
2017-05-05T03:38:45.881Z,87.88
2017-05-05T03:39:45.927Z,87.6
2017-05-05T03:40:45.952Z,87.98
2017-05-05T03:41:46.019Z,88.07
2017-05-05T03:42:46.027Z,87.6
2017-05-05T03:43:46.067Z,87.98
2017-05-05T03:44:46.098Z,87.88
2017-05-05T03:45:46.146Z,88.17
2017-05-05T03:46:46.169Z,87.88
2017-05-05T03:47:46.209Z,87.79
2017-05-05T03:48:46.242Z,87.88
2017-05-05T03:49:46.278Z,87.69
2017-05-05T03:50:46.621Z,88.07
2017-05-05T03:51:46.365Z,88.26
2017-05-05T03:52:46.391Z,88.07
2017-05-05T03:53:46.736Z,87.88
2017-05-05T03:54:46.458Z,87.98
2017-05-05T03:55:46.504Z,88.36
2017-05-05T03:56:46.530Z,87.69
2017-05-05T03:57:46.575Z,88.07
2017-05-05T03:58:46.623Z,87.88
2017-05-05T03:59:46.654Z,88.07
2017-05-05T04:00:46.674Z,87.5
2017-05-05T04:01:46.723Z,88.07
2017-05-05T04:02:46.760Z,87.88
2017-05-05T04:03:46.781Z,87.4
2017-05-05T04:04:46.837Z,88.36
2017-05-05T04:05:46.860Z,87.79
2017-05-05T04:06:46.891Z,87.6
2017-05-05T04:07:46.959Z,88.45
2017-05-05T04:08:46.962Z,88.36
2017-05-05T04:09:47.003Z,88.45
2017-05-05T04:10:47.034Z,87.79
2017-05-05T04:11:47.072Z,87.69
2017-05-05T04:12:47.105Z,87.6
2017-05-05T04:13:47.161Z,87.69
2017-05-05T04:14:47.178Z,87.12
2017-05-05T04:15:47.215Z,87.79
2017-05-05T04:16:47.251Z,87.02
2017-05-05T04:17:47.304Z,87.5
2017-05-05T04:18:47.326Z,87.69
2017-05-05T04:19:47.390Z,87.6
2017-05-05T04:20:47.416Z,87.79
2017-05-05T04:21:47.455Z,87.6
2017-05-05T04:22:47.772Z,87.79
2017-05-05T04:23:47.529Z,87.79
2017-05-05T04:24:47.538Z,87.6
2017-05-05T04:25:47.574Z,88.17
2017-05-05T04:26:47.644Z,87.88
2017-05-05T04:27:47.648Z,88.17
2017-05-05T04:28:47.700Z,87.69
2017-05-05T04:29:47.742Z,87.21
2017-05-05T04:30:47.770Z,88.26
2017-05-05T04:31:47.805Z,87.69
2017-05-05T04:32:47.848Z,87.88
2017-05-05T04:33:47.895Z,87.98
2017-05-05T04:34:47.900Z,87.6
2017-05-05T04:35:47.936Z,88.17
2017-05-05T04:36:48.001Z,88.36
2017-05-05T04:37:48.026Z,88.07
2017-05-05T04:38:48.071Z,87.6
2017-05-05T04:39:49.848Z,87.79
2017-05-05T04:40:49.488Z,87.88
2017-05-05T04:41:48.171Z,87.88
2017-05-05T04:42:48.188Z,87.5
2017-05-05T04:43:48.533Z,88.07
2017-05-05T04:44:48.262Z,87.79
2017-05-05T04:45:48.312Z,87.98
2017-05-05T04:46:48.367Z,87.6
2017-05-05T04:47:48.369Z,87.88
2017-05-05T04:48:48.741Z,87.98
2017-05-05T04:49:48.477Z,87.98
2017-05-05T04:50:48.477Z,88.07
2017-05-05T04:51:48.521Z,87.98
2017-05-05T04:52:48.549Z,87.98
2017-05-05T04:53:48.610Z,87.88
2017-05-05T04:54:48.640Z,87.88
2017-05-05T04:55:48.674Z,87.88
2017-05-05T04:56:48.693Z,87.98
2017-05-05T04:57:48.730Z,87.79
2017-05-05T04:58:48.785Z,87.98
2017-05-05T04:59:48.829Z,87.69
2017-05-05T05:00:48.866Z,87.98
2017-05-05T05:01:48.904Z,88.26
2017-05-05T05:02:48.922Z,87.6
2017-05-05T05:03:48.957Z,87.69
2017-05-05T05:04:49.007Z,87.5
2017-05-05T05:05:49.038Z,87.6
2017-05-05T05:06:49.055Z,88.17
2017-05-05T05:07:49.115Z,87.98
2017-05-05T05:08:49.146Z,87.79
2017-05-05T05:09:49.166Z,87.69
2017-05-05T05:10:49.220Z,87.6
2017-05-05T05:11:49.252Z,87.21
2017-05-05T05:12:49.277Z,87.83
2017-05-05T05:13:49.335Z,87.83
2017-05-05T05:14:49.377Z,87.64
2017-05-05T05:15:49.383Z,87.74
2017-05-05T05:16:49.421Z,88.12
2017-05-05T05:17:49.459Z,87.35
2017-05-05T05:18:49.823Z,87.54
2017-05-05T05:19:49.529Z,87.74
2017-05-05T05:20:49.565Z,87.45
2017-05-05T05:21:49.614Z,87.54
2017-05-05T05:22:49.638Z,87.54
2017-05-05T05:23:49.684Z,87.54
2017-05-05T05:24:49.716Z,87.26
2017-05-05T05:25:49.749Z,87.54
2017-05-05T05:26:49.786Z,87.35
2017-05-05T05:27:49.824Z,87.16
2017-05-05T05:28:49.882Z,86.78
2017-05-05T05:29:49.894Z,86.98
2017-05-05T05:30:49.930Z,86.98
2017-05-05T05:31:50.000Z,86.98
2017-05-05T05:32:50.020Z,87.16
2017-05-05T05:33:50.077Z,87.07
2017-05-05T05:34:50.078Z,86.98
2017-05-05T05:35:50.113Z,86.88
2017-05-05T05:36:50.150Z,86.98
2017-05-05T05:37:50.188Z,87.26
2017-05-05T05:38:50.225Z,86.98
2017-05-05T05:39:50.268Z,87.26
2017-05-05T05:40:50.296Z,87.26
2017-05-05T05:41:50.357Z,86.59
2017-05-05T05:42:50.371Z,86.59
2017-05-05T05:43:50.429Z,86.4
2017-05-05T05:44:50.446Z,86.69
2017-05-05T05:45:50.487Z,86.98
2017-05-05T05:46:50.518Z,86.78
2017-05-05T05:47:50.553Z,86.4
2017-05-05T05:48:50.592Z,86.69
2017-05-05T05:49:50.626Z,86.3
2017-05-05T05:50:50.663Z,86.49
2017-05-05T05:51:50.701Z,86.11
2017-05-05T05:52:50.736Z,86.49
2017-05-05T05:53:50.806Z,86.3
2017-05-05T05:54:50.808Z,86.4
2017-05-05T05:55:50.843Z,86.4
2017-05-05T05:56:50.882Z,86.02
2017-05-05T05:57:50.921Z,85.73
2017-05-05T05:58:51.265Z,86.4
2017-05-05T05:59:50.995Z,86.4
2017-05-05T06:00:51.044Z,86.11
2017-05-05T06:01:51.078Z,86.4
2017-05-05T06:02:51.148Z,85.83
2017-05-05T06:03:51.137Z,85.93
2017-05-05T06:04:51.175Z,85.87
2017-05-05T06:05:51.228Z,85.49
2017-05-05T06:06:51.274Z,85.45
2017-05-05T06:07:51.320Z,85.68
2017-05-05T06:08:51.433Z,85.49
2017-05-05T06:09:51.376Z,85.39
2017-05-05T06:10:51.396Z,85.58
2017-05-05T06:11:51.433Z,85.01
2017-05-05T06:12:51.780Z,85.01
2017-05-05T06:13:51.553Z,84.72
2017-05-05T06:14:51.546Z,84.86
2017-05-05T06:15:51.591Z,85.15
2017-05-05T06:16:51.618Z,84.67
2017-05-05T06:17:51.654Z,84.58
2017-05-05T06:18:51.690Z,84.77
2017-05-05T06:19:51.748Z,84.58
2017-05-05T06:20:51.765Z,84.2
2017-05-05T06:21:51.831Z,83.62
2017-05-05T06:22:51.839Z,83.62
2017-05-05T06:23:51.893Z,83.62
2017-05-05T06:24:51.916Z,83.81
2017-05-05T06:25:51.973Z,83.18
2017-05-05T06:26:52.026Z,83.28
2017-05-05T06:27:52.025Z,83.57
2017-05-05T06:28:52.065Z,83.28
2017-05-05T06:29:52.425Z,82.81
2017-05-05T06:30:52.138Z,82.71
2017-05-05T06:31:52.178Z,83
2017-05-05T06:32:52.213Z,82.23
2017-05-05T06:33:52.269Z,82.52
2017-05-05T06:34:52.288Z,82.04
2017-05-05T06:35:52.323Z,82.14
2017-05-05T06:36:52.362Z,81.85
2017-05-05T06:37:52.400Z,81.85
2017-05-05T06:38:52.435Z,81.66
2017-05-05T06:39:52.481Z,81.76
2017-05-05T06:40:52.537Z,82.04
2017-05-05T06:41:52.576Z,81.27
2017-05-05T06:42:52.584Z,81.27
2017-05-05T06:43:52.654Z,81.27
2017-05-05T06:44:52.676Z,81.43
2017-05-05T06:45:52.721Z,81.47
2017-05-05T06:46:52.747Z,81.47
2017-05-05T06:47:52.774Z,80.95
2017-05-05T06:48:52.835Z,81.09
2017-05-05T06:49:52.855Z,81.14
2017-05-05T06:50:52.884Z,80.95
2017-05-05T06:51:52.919Z,81.14
2017-05-05T06:52:52.959Z,81.14
2017-05-05T06:53:52.995Z,80.8
2017-05-05T06:54:53.033Z,80.57
2017-05-05T06:55:53.083Z,80.95
2017-05-05T06:56:53.109Z,80.66
2017-05-05T06:57:53.163Z,80.8
2017-05-05T06:58:53.204Z,80.66
2017-05-05T06:59:53.241Z,80.57
2017-05-05T07:00:53.256Z,80.66
2017-05-05T07:01:53.311Z,80.8
2017-05-05T07:02:53.334Z,80.76
2017-05-05T07:03:53.388Z,80.47
2017-05-05T07:04:53.414Z,80.57
2017-05-05T07:05:53.751Z,80.61
2017-05-05T07:06:53.481Z,80.51
2017-05-05T07:07:53.523Z,80.47
2017-05-05T07:08:53.555Z,80.22
2017-05-05T07:09:53.591Z,80.04
2017-05-05T07:10:53.656Z,80.22
2017-05-05T07:11:53.685Z,80.22
2017-05-05T07:12:53.705Z,80.32
2017-05-05T07:13:53.778Z,80.32
2017-05-05T07:14:53.841Z,80.38
2017-05-05T07:15:53.847Z,79.56
2017-05-05T07:16:53.852Z,79.56
2017-05-05T07:17:53.889Z,79.65
2017-05-05T07:18:53.946Z,79.85
2017-05-05T07:19:53.967Z,79.75
2017-05-05T07:20:54.002Z,79.65
2017-05-05T07:21:54.063Z,79.85
2017-05-05T07:22:54.088Z,79.46
2017-05-05T07:23:54.119Z,79.46
2017-05-05T07:24:54.191Z,79.75
2017-05-05T07:25:54.196Z,79.75
2017-05-05T07:26:54.226Z,79.46
2017-05-05T07:27:54.264Z,79.6
2017-05-05T07:28:54.304Z,79.98
2017-05-05T07:29:54.340Z,79.5
2017-05-05T07:30:54.377Z,79.22
2017-05-05T07:31:54.416Z,79.02
2017-05-05T07:32:54.456Z,78.26
2017-05-05T07:33:54.496Z,78.74
2017-05-05T07:34:54.531Z,78.45
2017-05-05T07:35:54.569Z,78.39
2017-05-05T07:36:54.613Z,78.01
2017-05-05T07:37:54.640Z,77.53
2017-05-05T07:38:54.679Z,77.97
2017-05-05T07:39:55.031Z,78.01
2017-05-05T07:40:54.782Z,78.01
2017-05-05T07:41:54.793Z,77.92
2017-05-05T07:42:54.858Z,77.82
2017-05-05T07:43:54.868Z,77.63
2017-05-05T07:44:54.918Z,77.63
2017-05-05T07:45:54.960Z,77.34
2017-05-05T07:46:55.007Z,76.96
2017-05-05T07:47:55.024Z,77.53
2017-05-05T07:48:55.062Z,77.15
2017-05-05T07:49:55.097Z,76.48
2017-05-05T07:50:55.150Z,76.86
2017-05-05T07:51:55.207Z,76.42
2017-05-05T07:52:55.215Z,76.62
2017-05-05T07:53:55.255Z,76.42
2017-05-05T07:54:55.628Z,76.33
2017-05-05T07:55:55.327Z,76.42
2017-05-05T07:56:55.367Z,75.85
2017-05-05T07:57:55.712Z,75.37
2017-05-05T07:58:55.444Z,74.9
2017-05-05T07:59:55.498Z,75.18
2017-05-05T08:00:55.711Z,74.9
2017-05-05T08:01:55.586Z,74.9
2017-05-05T08:02:55.610Z,74.61
2017-05-05T08:03:55.635Z,74.51
2017-05-05T08:04:55.692Z,74.32
2017-05-05T08:05:55.745Z,74.7
2017-05-05T08:06:55.774Z,74.7
2017-05-05T08:07:55.868Z,74.48
2017-05-05T08:08:55.834Z,74.7
2017-05-05T08:09:56.180Z,74.61
2017-05-05T08:10:55.905Z,74.13
2017-05-05T08:11:55.954Z,74.41
2017-05-05T08:12:56.011Z,74.8
2017-05-05T08:13:56.037Z,74.41
2017-05-05T08:14:56.074Z,74.22
2017-05-05T08:15:56.100Z,73.65
2017-05-05T08:16:56.159Z,73.75
2017-05-05T08:17:56.189Z,73.17
2017-05-05T08:18:56.213Z,72.88
2017-05-05T08:19:56.558Z,72.98
2017-05-05T08:20:56.292Z,73.36
2017-05-05T08:21:56.345Z,73.46
2017-05-05T08:22:56.367Z,73.65
2017-05-05T08:23:56.409Z,73.36
2017-05-05T08:24:56.445Z,73.4
2017-05-05T08:25:56.495Z,72.88
2017-05-05T08:26:56.525Z,73.02
2017-05-05T08:27:56.585Z,72.83
2017-05-05T08:28:56.623Z,72.83
2017-05-05T08:29:56.666Z,73.11
2017-05-05T08:30:56.784Z,72.63
2017-05-05T08:31:56.761Z,72.77
2017-05-05T08:32:56.819Z,72.38
2017-05-05T08:33:56.811Z,72.29
2017-05-05T08:34:56.832Z,72.48
2017-05-05T08:35:56.891Z,72.09
2017-05-05T08:36:56.909Z,71.52
2017-05-05T08:37:56.954Z,71.71
2017-05-05T08:38:56.995Z,71.52
2017-05-05T08:39:57.032Z,71.14
2017-05-05T08:40:57.384Z,71.04
2017-05-05T08:41:57.124Z,71.14
2017-05-05T08:42:57.149Z,71.23
2017-05-05T08:43:57.184Z,71.04
2017-05-05T08:44:57.257Z,71.23
2017-05-05T08:45:57.264Z,70.79
2017-05-05T08:46:57.322Z,70.47
2017-05-05T08:47:57.356Z,70.28
2017-05-05T08:48:57.394Z,70.41
2017-05-05T08:49:57.425Z,70.12
2017-05-05T08:50:57.474Z,70.12
2017-05-05T08:51:57.498Z,69.6
2017-05-05T08:52:57.560Z,69.93
2017-05-05T08:53:57.886Z,69.17
2017-05-05T08:54:57.617Z,69.23
2017-05-05T08:55:57.671Z,69.26
2017-05-05T08:56:57.705Z,69.35
2017-05-05T08:57:57.736Z,68.78
2017-05-05T08:58:57.773Z,68.74
2017-05-05T08:59:57.813Z,68.74
2017-05-05T09:00:57.849Z,68.74
2017-05-05T09:01:57.891Z,68.94
2017-05-05T09:02:57.928Z,68.68
2017-05-05T09:03:57.988Z,68.65
2017-05-05T09:04:58.129Z,68.87
2017-05-05T09:05:58.045Z,68.36
2017-05-05T09:06:58.512Z,68.46
2017-05-05T09:07:58.125Z,68.36
2017-05-05T09:08:58.164Z,68.46
2017-05-05T09:09:58.206Z,68.94
2017-05-05T09:10:58.547Z,68.17
2017-05-05T09:11:58.281Z,68.55
2017-05-05T09:12:58.319Z,68.36
2017-05-05T09:13:58.373Z,68.46
2017-05-05T09:14:58.415Z,68.27
2017-05-05T09:15:58.782Z,68.17
2017-05-05T09:16:58.494Z,68.55
2017-05-05T09:17:58.514Z,68.21
2017-05-05T09:18:58.554Z,68.49
2017-05-05T09:19:58.615Z,68.21
2017-05-05T09:20:58.655Z,68.21
2017-05-05T09:21:58.669Z,68.21
2017-05-05T09:22:58.710Z,67.91
2017-05-05T09:23:58.746Z,68.01
2017-05-05T09:24:58.801Z,67.63
2017-05-05T09:25:58.828Z,67.54
2017-05-05T09:26:58.915Z,67.91
2017-05-05T09:27:58.923Z,67.82
2017-05-05T09:28:58.946Z,67.76
2017-05-05T09:29:59.004Z,67.66
2017-05-05T09:30:59.023Z,67.18
2017-05-05T09:31:59.065Z,67.66
2017-05-05T09:32:59.112Z,66.8
2017-05-05T09:33:59.156Z,67.09
2017-05-05T09:34:59.180Z,66.32
2017-05-05T09:35:59.238Z,66.8
2017-05-05T09:36:59.260Z,66.67
2017-05-05T09:37:59.299Z,66.48
2017-05-05T09:38:59.677Z,66.58
2017-05-05T09:39:59.378Z,66.42
2017-05-05T09:40:59.416Z,66.42
2017-05-05T09:41:59.460Z,66.71
2017-05-05T09:42:59.496Z,66.13
2017-05-05T09:43:59.531Z,66.42
2017-05-05T09:44:59.584Z,66.51
2017-05-05T09:45:59.610Z,66.42
2017-05-05T09:46:59.664Z,66.38
2017-05-05T09:47:59.690Z,65.46
2017-05-05T09:48:59.743Z,66.13
2017-05-05T09:49:59.769Z,66.22
2017-05-05T09:50:59.808Z,65.81
2017-05-05T09:51:59.867Z,65.62
2017-05-05T09:52:59.887Z,65.52
2017-05-05T09:53:59.941Z,65.42
2017-05-05T09:54:59.968Z,65.33
2017-05-05T09:56:00.011Z,65.42
2017-05-05T09:57:00.045Z,65.42
2017-05-05T09:58:00.114Z,65.23
2017-05-05T09:59:00.479Z,65.23
2017-05-05T10:00:00.162Z,65.62
2017-05-05T10:01:00.198Z,65.42
2017-05-05T10:02:00.268Z,65.71
2017-05-05T10:03:00.284Z,65.42
2017-05-05T10:04:00.340Z,65.62
2017-05-05T10:05:00.662Z,65.62
2017-05-05T10:06:00.416Z,65.42
2017-05-05T10:07:00.433Z,65.33
2017-05-05T10:08:00.496Z,65.05
2017-05-05T10:09:00.513Z,65.49
2017-05-05T10:10:00.562Z,65.2
2017-05-05T10:11:00.589Z,65.39
2017-05-05T10:12:00.652Z,65.3
2017-05-05T10:13:00.693Z,65.01
2017-05-05T10:14:00.707Z,65.58
2017-05-05T10:15:00.745Z,65.3
2017-05-05T10:16:00.785Z,65.68
2017-05-05T10:17:00.834Z,65.3
2017-05-05T10:18:00.865Z,65.01
2017-05-05T10:19:00.919Z,65.39
2017-05-05T10:20:00.943Z,65.2
2017-05-05T10:21:00.980Z,65.2
2017-05-05T10:22:01.046Z,65.39
2017-05-05T10:23:01.057Z,65.49
2017-05-05T10:24:01.126Z,65.39
2017-05-05T10:25:01.147Z,65.2
2017-05-05T10:26:01.172Z,65.39
2017-05-05T10:27:01.243Z,65.49
2017-05-05T10:28:01.252Z,65.2
2017-05-05T10:29:01.290Z,65.3
2017-05-05T10:30:01.334Z,65.2
2017-05-05T10:31:01.366Z,66.06
2017-05-05T10:32:01.406Z,65.68
2017-05-05T10:33:01.449Z,65.78
2017-05-05T10:34:02.281Z,65.68
2017-05-05T10:35:01.521Z,65.58
2017-05-05T10:36:01.562Z,66.16
2017-05-05T10:37:01.601Z,65.84
2017-05-05T10:38:01.658Z,65.84
2017-05-05T10:39:01.675Z,66.35
2017-05-05T10:40:01.730Z,65.74
2017-05-05T10:41:01.751Z,65.84
2017-05-05T10:42:01.794Z,65.74
2017-05-05T10:43:01.854Z,66.13
2017-05-05T10:44:01.868Z,66.13
2017-05-05T10:45:01.907Z,65.84
2017-05-05T10:46:01.945Z,66.41
2017-05-05T10:47:01.984Z,66.22
2017-05-05T10:48:02.042Z,66.22
2017-05-05T10:49:02.064Z,66.13
2017-05-05T10:50:02.101Z,66.22
2017-05-05T10:51:02.152Z,66.32
2017-05-05T10:52:02.209Z,65.74
2017-05-05T10:53:02.249Z,66.32
2017-05-05T10:54:02.266Z,66.22
2017-05-05T10:55:02.298Z,66.22
2017-05-05T10:56:02.344Z,66.32
2017-05-05T10:57:02.369Z,66.22
2017-05-05T10:58:02.430Z,66.03
2017-05-05T10:59:02.453Z,65.84
2017-05-05T11:00:02.505Z,66.13
2017-05-05T11:01:02.522Z,66.32
2017-05-05T11:02:02.561Z,66.25
2017-05-05T11:03:02.602Z,66.35
2017-05-05T11:04:02.663Z,66.16
2017-05-05T11:05:02.677Z,66.13
2017-05-05T11:06:02.736Z,66.25
2017-05-05T11:07:02.757Z,66.32
2017-05-05T11:08:02.795Z,66.32
2017-05-05T11:09:02.832Z,66.25
2017-05-05T11:10:02.874Z,65.68
2017-05-05T11:11:02.908Z,65.78
2017-05-05T11:12:02.980Z,66.25
2017-05-05T11:13:03.002Z,65.78
2017-05-05T11:14:03.022Z,65.88
2017-05-05T11:15:03.079Z,65.39
2017-05-05T11:16:03.107Z,66.16
2017-05-05T11:17:03.156Z,65.68
2017-05-05T11:18:03.193Z,65.78
2017-05-05T11:19:03.220Z,65.71
2017-05-05T11:20:03.260Z,65.71
2017-05-05T11:21:03.296Z,65.88
2017-05-05T11:22:03.361Z,65.71
2017-05-05T11:23:03.386Z,66.06
2017-05-05T11:24:03.415Z,65.49
2017-05-05T11:25:03.455Z,65.3
2017-05-05T11:26:03.558Z,65.2
2017-05-05T11:27:03.530Z,65.42
2017-05-05T11:28:03.576Z,65.68
2017-05-05T11:29:03.607Z,65.68
2017-05-05T11:30:03.649Z,65.3
2017-05-05T11:31:03.688Z,65.11
2017-05-05T11:32:03.726Z,65.01
2017-05-05T11:33:03.765Z,65.49
2017-05-05T11:34:03.804Z,65.49
2017-05-05T11:35:03.869Z,65.58
2017-05-05T11:36:03.889Z,65.58
2017-05-05T11:37:03.941Z,65.49
2017-05-05T11:38:03.962Z,65.39
2017-05-05T11:39:04.000Z,65.3
2017-05-05T11:40:04.037Z,65.2
2017-05-05T11:41:04.100Z,65.39
2017-05-05T11:42:04.120Z,65.2
2017-05-05T11:43:04.164Z,65.39
2017-05-05T11:44:04.193Z,65.2
2017-05-05T11:45:04.256Z,65.01
2017-05-05T11:46:04.268Z,65.65
2017-05-05T11:47:04.310Z,65.49
2017-05-05T11:48:04.359Z,65.58
2017-05-05T11:49:04.410Z,65.55
2017-05-05T11:50:04.423Z,65.55
2017-05-05T11:51:04.486Z,65.65
2017-05-05T11:52:04.500Z,65.55
2017-05-05T11:53:04.554Z,66.03
2017-05-05T11:54:04.578Z,65.84
2017-05-05T11:55:04.617Z,65.74
2017-05-05T11:56:04.655Z,65.74
2017-05-05T11:57:04.693Z,65.65
2017-05-05T11:58:04.758Z,65.84
2017-05-05T11:59:04.770Z,65.65
2017-05-05T12:00:04.810Z,66.03
2017-05-05T12:01:04.845Z,66.13
2017-05-05T12:02:04.900Z,66.41
2017-05-05T12:03:04.924Z,66.32
2017-05-05T12:04:04.961Z,65.84
2017-05-05T12:05:05.001Z,66.13
2017-05-05T12:06:05.051Z,66.61
2017-05-05T12:07:05.110Z,66.32
2017-05-05T12:08:05.146Z,66.7
2017-05-05T12:09:05.153Z,66.51
2017-05-05T12:10:05.192Z,66.41
2017-05-05T12:11:05.256Z,66.61
2017-05-05T12:12:05.268Z,66.7
2017-05-05T12:13:05.326Z,66.7
2017-05-05T12:14:05.361Z,66.8
2017-05-05T12:15:05.402Z,66.8
2017-05-05T12:16:05.424Z,66.7
2017-05-05T12:17:05.484Z,66.7
2017-05-05T12:18:05.498Z,66.99
2017-05-05T12:19:05.536Z,66.51
2017-05-05T12:20:05.580Z,66.99
2017-05-05T12:21:05.632Z,66.7
2017-05-05T12:22:05.686Z,66.93
2017-05-05T12:23:05.692Z,66.74
2017-05-05T12:24:05.730Z,66.93
2017-05-05T12:25:05.806Z,66.93
2017-05-05T12:26:05.821Z,66.54
2017-05-05T12:27:05.843Z,66.45
2017-05-05T12:28:05.903Z,66.54
2017-05-05T12:29:05.926Z,66.74
2017-05-05T12:30:05.972Z,66.64
2017-05-05T12:31:06.016Z,66.45
2017-05-05T12:32:06.040Z,66.54
2017-05-05T12:33:06.097Z,66.35
2017-05-05T12:34:06.421Z,66.35
2017-05-05T12:35:06.181Z,66.25
2017-05-05T12:36:06.205Z,66.64
2017-05-05T12:37:06.244Z,66.45
2017-05-05T12:38:06.272Z,66.06
2017-05-05T12:39:06.319Z,66.25
2017-05-05T12:40:06.367Z,66.16
2017-05-05T12:41:06.628Z,65.78
2017-05-05T12:42:06.422Z,65.68
2017-05-05T12:43:06.462Z,65.88
2017-05-05T12:44:06.523Z,65.68
2017-05-05T12:45:06.542Z,66.45
2017-05-05T12:46:06.594Z,66.25
2017-05-05T12:47:06.616Z,66.09
2017-05-05T12:48:06.654Z,65.71
2017-05-05T12:49:06.691Z,65.52
2017-05-05T12:50:06.732Z,65.71
2017-05-05T12:51:06.770Z,65.52
2017-05-05T12:52:06.809Z,65.62
2017-05-05T12:53:06.872Z,65.14
2017-05-05T12:54:06.886Z,64.76
2017-05-05T12:55:06.936Z,64.56
2017-05-05T12:56:06.963Z,65.05